UAL571 KSAN-KLAX
Flight info
| Callsign | UAL571 |
|---|---|
| Flight time | 0h 25m |
| Altitude | 10000 |
| Route | CWARD2 SLI |
| Aircraft | B738/M-SDE2E3FGHIRWXY/LB1 |
Departure
| Time | 2026-05-07 22:09 |
|---|---|
| Airport | San Diego International Airport (KSAN) |
Arrival
| Time | 2026-05-07 22:34 |
|---|---|
| Airport | Los Angeles International Airport (KLAX) |
| Time | Latitude | Longitude | Altitude | Speed | Heading |
|---|---|---|---|---|---|
| 2026-05-07 21:46 | 32.73347 | -117.20053 | 22 ft | 0 kts | 261° |
| 2026-05-07 21:52 | 32.73348 | -117.20049 | 22 ft | 2 kts | 262° |
| 2026-05-07 21:53 | 32.73349 | -117.20027 | 23 ft | 3 kts | 279° |
| 2026-05-07 21:53 | 32.73343 | -117.20006 | 25 ft | 3 kts | 308° |
| 2026-05-07 21:53 | 32.73329 | -117.19991 | 25 ft | 3 kts | 346° |
| 2026-05-07 21:53 | 32.73318 | -117.19990 | 24 ft | 0 kts | 8° |
| 2026-05-07 21:54 | 32.73317 | -117.19990 | 25 ft | 0 kts | 8° |
| 2026-05-07 22:00 | 32.73320 | -117.19989 | 23 ft | 3 kts | 8° |
| 2026-05-07 22:00 | 32.73384 | -117.19975 | 22 ft | 12 kts | 11° |
| 2026-05-07 22:01 | 32.73469 | -117.19934 | 23 ft | 20 kts | 54° |
| 2026-05-07 22:01 | 32.73445 | -117.19763 | 22 ft | 25 kts | 106° |
| 2026-05-07 22:01 | 32.73393 | -117.19549 | 22 ft | 29 kts | 105° |
| 2026-05-07 22:01 | 32.73335 | -117.19306 | 21 ft | 32 kts | 106° |
| 2026-05-07 22:02 | 32.73269 | -117.19038 | 23 ft | 35 kts | 106° |
| 2026-05-07 22:02 | 32.73199 | -117.18749 | 24 ft | 37 kts | 106° |
| 2026-05-07 22:02 | 32.73127 | -117.18448 | 23 ft | 38 kts | 106° |
| 2026-05-07 22:02 | 32.73054 | -117.18151 | 21 ft | 37 kts | 106° |
| 2026-05-07 22:03 | 32.72986 | -117.17867 | 21 ft | 34 kts | 106° |
| 2026-05-07 22:03 | 32.72951 | -117.17694 | 21 ft | 14 kts | 76° |
| 2026-05-07 22:03 | 32.72954 | -117.17685 | 21 ft | 0 kts | 74° |
| 2026-05-07 22:07 | 32.72954 | -117.17684 | 21 ft | 1 kts | 74° |
| 2026-05-07 22:07 | 32.72970 | -117.17628 | 21 ft | 15 kts | 60° |
| 2026-05-07 22:07 | 32.73035 | -117.17643 | 21 ft | 10 kts | 290° |
| 2026-05-07 22:07 | 32.73043 | -117.17671 | 22 ft | 0 kts | 285° |
| 2026-05-07 22:08 | 32.73043 | -117.17672 | 21 ft | 1 kts | 285° |
| 2026-05-07 22:08 | 32.73098 | -117.17900 | 21 ft | 69 kts | 286° |
| 2026-05-07 22:08 | 32.73306 | -117.18754 | 22 ft | 141 kts | 286° |
| 2026-05-07 22:08 | 32.73660 | -117.20085 | 472 ft | 184 kts | 288° |
| 2026-05-07 22:09 | 32.74080 | -117.21577 | 1568 ft | 193 kts | 295° |
| 2026-05-07 22:09 | 32.74828 | -117.22934 | 2659 ft | 209 kts | 305° |
| 2026-05-07 22:09 | 32.75722 | -117.24463 | 3295 ft | 238 kts | 305° |
| 2026-05-07 22:09 | 32.76705 | -117.26167 | 4028 ft | 255 kts | 304° |
| 2026-05-07 22:10 | 32.77712 | -117.27927 | 4932 ft | 261 kts | 305° |
| 2026-05-07 22:10 | 32.78739 | -117.29727 | 5808 ft | 265 kts | 305° |
| 2026-05-07 22:10 | 32.79782 | -117.31556 | 6658 ft | 270 kts | 306° |
| 2026-05-07 22:10 | 32.80896 | -117.33372 | 7468 ft | 274 kts | 308° |
| 2026-05-07 22:11 | 32.82072 | -117.35191 | 8273 ft | 280 kts | 309° |
| 2026-05-07 22:11 | 32.83278 | -117.37036 | 9086 ft | 285 kts | 309° |
| 2026-05-07 22:11 | 32.84093 | -117.38285 | 9547 ft | 290 kts | 309° |
| 2026-05-07 22:11 | 32.85332 | -117.40191 | 9928 ft | 292 kts | 309° |
| 2026-05-07 22:12 | 32.86578 | -117.42112 | 9969 ft | 294 kts | 309° |
| 2026-05-07 22:12 | 32.87822 | -117.44038 | 9973 ft | 293 kts | 309° |
| 2026-05-07 22:12 | 32.89062 | -117.45962 | 9982 ft | 293 kts | 309° |
| 2026-05-07 22:12 | 32.90305 | -117.47892 | 9985 ft | 293 kts | 309° |
| 2026-05-07 22:13 | 32.91542 | -117.49814 | 9978 ft | 294 kts | 309° |
| 2026-05-07 22:13 | 32.92785 | -117.51748 | 9981 ft | 294 kts | 309° |
| 2026-05-07 22:13 | 32.94030 | -117.53686 | 9978 ft | 294 kts | 309° |
| 2026-05-07 22:13 | 32.95270 | -117.55618 | 9976 ft | 294 kts | 309° |
| 2026-05-07 22:14 | 32.96513 | -117.57556 | 9976 ft | 294 kts | 309° |
| 2026-05-07 22:14 | 32.97752 | -117.59488 | 9979 ft | 294 kts | 309° |
| 2026-05-07 22:14 | 32.98992 | -117.61424 | 9972 ft | 294 kts | 309° |
| 2026-05-07 22:14 | 33.00233 | -117.63362 | 9969 ft | 293 kts | 309° |
| 2026-05-07 22:15 | 33.01469 | -117.65292 | 9970 ft | 293 kts | 309° |
| 2026-05-07 22:15 | 33.02689 | -117.67199 | 9973 ft | 293 kts | 309° |
| 2026-05-07 22:15 | 33.03939 | -117.69153 | 9968 ft | 293 kts | 309° |
| 2026-05-07 22:15 | 33.05173 | -117.71085 | 9969 ft | 293 kts | 309° |
| 2026-05-07 22:16 | 33.06404 | -117.72978 | 9967 ft | 292 kts | 313° |
| 2026-05-07 22:16 | 33.07857 | -117.74659 | 9969 ft | 290 kts | 321° |
| 2026-05-07 22:16 | 33.09407 | -117.76191 | 9977 ft | 289 kts | 323° |
| 2026-05-07 22:16 | 33.10970 | -117.77706 | 9972 ft | 290 kts | 322° |
| 2026-05-07 22:17 | 33.12528 | -117.79239 | 9968 ft | 290 kts | 322° |
| 2026-05-07 22:17 | 33.14076 | -117.80790 | 9980 ft | 291 kts | 322° |
| 2026-05-07 22:17 | 33.15615 | -117.82347 | 10009 ft | 291 kts | 321° |
| 2026-05-07 22:17 | 33.17156 | -117.83915 | 10008 ft | 291 kts | 321° |
| 2026-05-07 22:18 | 33.18700 | -117.85471 | 10008 ft | 290 kts | 325° |
| 2026-05-07 22:18 | 33.22431 | -117.87023 | 10012 ft | 286 kts | 350° |
| 2026-05-07 22:18 | 33.24381 | -117.87487 | 10012 ft | 286 kts | 350° |
| 2026-05-07 22:19 | 33.26333 | -117.87950 | 10009 ft | 286 kts | 350° |
| 2026-05-07 22:19 | 33.28262 | -117.88414 | 10011 ft | 286 kts | 350° |
| 2026-05-07 22:19 | 33.30215 | -117.88892 | 10012 ft | 286 kts | 349° |
| 2026-05-07 22:19 | 33.32167 | -117.89373 | 10011 ft | 286 kts | 349° |
| 2026-05-07 22:20 | 33.34107 | -117.89856 | 10001 ft | 282 kts | 349° |
| 2026-05-07 22:20 | 33.36007 | -117.90330 | 9995 ft | 276 kts | 349° |
| 2026-05-07 22:20 | 33.37869 | -117.90794 | 10002 ft | 272 kts | 350° |
| 2026-05-07 22:20 | 33.39710 | -117.91336 | 9931 ft | 274 kts | 346° |
| 2026-05-07 22:21 | 33.41536 | -117.91993 | 9776 ft | 275 kts | 344° |
| 2026-05-07 22:21 | 33.43363 | -117.92675 | 9634 ft | 274 kts | 344° |
| 2026-05-07 22:21 | 33.45182 | -117.93354 | 9488 ft | 274 kts | 344° |
| 2026-05-07 22:21 | 33.47003 | -117.94029 | 9348 ft | 274 kts | 344° |
| 2026-05-07 22:22 | 33.48822 | -117.94698 | 9210 ft | 273 kts | 344° |
| 2026-05-07 22:22 | 33.50641 | -117.95365 | 9072 ft | 273 kts | 344° |
| 2026-05-07 22:22 | 33.52461 | -117.96030 | 8939 ft | 273 kts | 344° |
| 2026-05-07 22:22 | 33.54281 | -117.96694 | 8800 ft | 273 kts | 345° |
| 2026-05-07 22:23 | 33.56094 | -117.97355 | 8663 ft | 273 kts | 344° |
| 2026-05-07 22:23 | 33.57913 | -117.98017 | 8528 ft | 272 kts | 344° |
| 2026-05-07 22:23 | 33.59719 | -117.98675 | 8392 ft | 271 kts | 344° |
| 2026-05-07 22:23 | 33.61522 | -117.99333 | 8255 ft | 270 kts | 344° |
| 2026-05-07 22:24 | 33.63319 | -117.99989 | 8120 ft | 269 kts | 344° |
| 2026-05-07 22:24 | 33.65109 | -118.00646 | 7988 ft | 268 kts | 344° |
| 2026-05-07 22:24 | 33.66893 | -118.01302 | 7865 ft | 268 kts | 344° |
| 2026-05-07 22:24 | 33.68679 | -118.01958 | 7699 ft | 269 kts | 344° |
| 2026-05-07 22:25 | 33.70448 | -118.02608 | 7553 ft | 269 kts | 344° |
| 2026-05-07 22:25 | 33.72230 | -118.03273 | 7408 ft | 265 kts | 342° |
| 2026-05-07 22:25 | 33.73959 | -118.04008 | 7190 ft | 262 kts | 340° |
| 2026-05-07 22:25 | 33.75671 | -118.04767 | 6895 ft | 262 kts | 340° |
| 2026-05-07 22:26 | 33.77380 | -118.05524 | 6622 ft | 262 kts | 340° |
| 2026-05-07 22:26 | 33.79096 | -118.06281 | 6361 ft | 261 kts | 339° |
| 2026-05-07 22:26 | 33.80797 | -118.07028 | 6091 ft | 260 kts | 339° |
| 2026-05-07 22:26 | 33.82501 | -118.07772 | 5842 ft | 259 kts | 339° |
| 2026-05-07 22:27 | 33.84078 | -118.08459 | 5711 ft | 253 kts | 339° |
| 2026-05-07 22:27 | 33.85710 | -118.09168 | 5602 ft | 247 kts | 339° |
| 2026-05-07 22:27 | 33.87300 | -118.09861 | 5518 ft | 238 kts | 339° |
| 2026-05-07 22:27 | 33.88826 | -118.10522 | 5443 ft | 230 kts | 340° |
| 2026-05-07 22:28 | 33.90368 | -118.10873 | 5365 ft | 221 kts | 354° |
| 2026-05-07 22:28 | 33.91862 | -118.10962 | 5297 ft | 209 kts | 357° |
| 2026-05-07 22:28 | 33.93233 | -118.11268 | 5111 ft | 195 kts | 325° |
| 2026-05-07 22:28 | 33.94247 | -118.12224 | 4955 ft | 180 kts | 320° |
| 2026-05-07 22:29 | 33.95220 | -118.13142 | 4657 ft | 176 kts | 318° |
| 2026-05-07 22:29 | 33.95853 | -118.14374 | 4220 ft | 178 kts | 279° |
| 2026-05-07 22:29 | 33.95931 | -118.15844 | 3900 ft | 175 kts | 276° |
| 2026-05-07 22:29 | 33.95921 | -118.17315 | 3524 ft | 177 kts | 264° |
| 2026-05-07 22:30 | 33.95764 | -118.18771 | 3246 ft | 174 kts | 264° |
| 2026-05-07 22:30 | 33.95614 | -118.20204 | 3035 ft | 172 kts | 264° |
| 2026-05-07 22:30 | 33.95465 | -118.21637 | 2812 ft | 170 kts | 263° |
| 2026-05-07 22:30 | 33.95323 | -118.22990 | 2570 ft | 156 kts | 263° |
| 2026-05-07 22:31 | 33.95191 | -118.24256 | 2375 ft | 150 kts | 263° |
| 2026-05-07 22:31 | 33.95062 | -118.25493 | 2187 ft | 148 kts | 263° |
| 2026-05-07 22:31 | 33.94934 | -118.26726 | 2000 ft | 148 kts | 262° |
| 2026-05-07 22:31 | 33.94806 | -118.27958 | 1800 ft | 146 kts | 262° |
| 2026-05-07 22:32 | 33.94682 | -118.29155 | 1593 ft | 143 kts | 262° |
| 2026-05-07 22:32 | 33.94557 | -118.30355 | 1414 ft | 144 kts | 263° |
| 2026-05-07 22:32 | 33.94434 | -118.31542 | 1218 ft | 142 kts | 264° |
| 2026-05-07 22:32 | 33.94312 | -118.32721 | 1041 ft | 142 kts | 262° |
| 2026-05-07 22:33 | 33.94193 | -118.33868 | 846 ft | 143 kts | 262° |
| 2026-05-07 22:33 | 33.94069 | -118.35058 | 657 ft | 140 kts | 262° |
| 2026-05-07 22:33 | 33.93938 | -118.36216 | 478 ft | 141 kts | 263° |
| 2026-05-07 22:33 | 33.93820 | -118.37384 | 309 ft | 138 kts | 263° |
| 2026-05-07 22:34 | 33.93716 | -118.38499 | 118 ft | 130 kts | 261° |
| 2026-05-07 22:34 | 33.93611 | -118.39462 | 109 ft | 93 kts | 264° |
| 2026-05-07 22:34 | 33.93560 | -118.40008 | 112 ft | 54 kts | 268° |
| 2026-05-07 22:34 | 33.93614 | -118.40357 | 105 ft | 31 kts | 285° |
| 2026-05-07 22:35 | 33.93614 | -118.40559 | 105 ft | 18 kts | 264° |
| 2026-05-07 22:35 | 33.93598 | -118.40705 | 105 ft | 17 kts | 262° |
| 2026-05-07 22:35 | 33.93610 | -118.40848 | 105 ft | 18 kts | 301° |
| 2026-05-07 22:35 | 33.93731 | -118.40905 | 105 ft | 20 kts | 360° |
| 2026-05-07 22:36 | 33.93801 | -118.40761 | 101 ft | 25 kts | 84° |
| 2026-05-07 22:36 | 33.93823 | -118.40543 | 102 ft | 26 kts | 83° |
| 2026-05-07 22:36 | 33.93843 | -118.40336 | 103 ft | 24 kts | 83° |
| 2026-05-07 22:36 | 33.93862 | -118.40151 | 103 ft | 17 kts | 83° |
| 2026-05-07 22:37 | 33.93875 | -118.40059 | 103 ft | 8 kts | 58° |
| 2026-05-07 22:37 | 33.93895 | -118.40049 | 101 ft | 0 kts | 358° |
| 2026-05-07 22:38 | 33.93904 | -118.40049 | 101 ft | 4 kts | 357° |
| 2026-05-07 22:39 | 33.93954 | -118.40055 | 99 ft | 10 kts | 354° |
| 2026-05-07 22:39 | 33.94032 | -118.40067 | 95 ft | 12 kts | 352° |
| 2026-05-07 22:39 | 33.94111 | -118.40079 | 96 ft | 10 kts | 353° |
| 2026-05-07 22:39 | 33.94173 | -118.40088 | 95 ft | 6 kts | 353° |
| 2026-05-07 22:40 | 33.94195 | -118.40071 | 95 ft | 3 kts | 67° |
| 2026-05-07 22:40 | 33.94200 | -118.40045 | 94 ft | 2 kts | 73° |
| 2026-05-07 22:40 | 33.94203 | -118.40033 | 94 ft | 0 kts | 72° |
| 2026-05-07 22:41 | 33.94204 | -118.40027 | 94 ft | 0 kts | 70° |